CYJF

Fort Liard Airport

Fort Liard, Northwest Territories, Canada
METAR CYJF 192200Z 07004KT 10SM -RA FEW010 SCT050 BKN120 OVC240 04/02 A2999 RMK SF2SC1AC3CI2 14.3/-0.5/0/0 SNW CVR/NIL LAST STFD OBS/NEXT 221400UTC PRESFR SLP168
Observed Flight Rules
Oct-19 @ 22:00 UTC (22 hours ago) Visual Flight Rules
Wind Visibility Clouds Conditions
70° at 4 knots 10 miles
  • Few at 1,000' AGL
  • Scattered at 5,000' AGL
  • Broken at 12,000' AGL
  • Overcast at 24,000' AGL
  • Light Rain
Temperatures Readings
Current 4°C / 39°F
Dewpoint 2°C / 36°F
Humidity 87%
Altimeter 29.99" Hg
Pressure 1016 hPa
Elevation 215
METAR CYJF 192200Z 07004KT 10SM -RA FEW010 SCT050 BKN120 OVC240 04/02 A2999 RMK SF2SC1AC3CI2 14.3/-0.5/0/0 SNW CVR/NIL LAST STFD OBS/NEXT 221400UTC PRESFR SLP168
Observed Flight Rules
Oct-19 @ 22:00 UTC
(22 hours ago)
VFR
Wind Visibility
70° at 4 knots 10 miles
Clouds
  • Few at 1,000' AGL
  • Scattered at 5,000' AGL
  • Broken at 12,000' AGL
  • Overcast at 24,000' AGL
Conditions
  • Light Rain
Temperature Dewpoint
4°C / 39°F 2°C / 36°F
Humidity Altimeter Pressure
87% 29.99" Hg 1016 hPa